createdAt,value
2018-12-29T00:00:11.051Z,34.93
2018-12-29T00:05:33.813Z,38.37
2018-12-29T00:10:56.607Z,36.53
2018-12-29T00:16:19.379Z,35.77
2018-12-29T00:21:35.147Z,38.23
2018-12-29T00:26:50.841Z,35.93
2018-12-29T00:32:06.508Z,35.63
2018-12-29T00:37:22.164Z,31.17
2018-12-29T00:42:37.686Z,38.53
2018-12-29T00:47:53.214Z,37.60
2018-12-29T00:53:08.702Z,38.80
2018-12-29T00:58:24.228Z,36.80
2018-12-29T01:03:39.658Z,33.53
2018-12-29T01:08:55.393Z,38.80
2018-12-29T01:14:11.230Z,37.03
2018-12-29T01:19:27.148Z,37.70
2018-12-29T01:24:42.934Z,38.93
2018-12-29T01:29:58.459Z,46.17
2018-12-29T01:35:14.307Z,40.13
2018-12-29T01:40:30.657Z,43.87
2018-12-29T01:45:46.433Z,41.17
2018-12-29T01:51:02.190Z,39.87
2018-12-29T01:56:18.419Z,41.27
2018-12-29T02:01:33.901Z,39.50
2018-12-29T02:06:49.372Z,39.53
2018-12-29T02:12:05.239Z,38.73
2018-12-29T02:22:44.667Z,40.27
2018-12-29T02:28:00.006Z,43.77
2018-12-29T02:33:15.898Z,41.47
2018-12-29T02:38:31.247Z,41.47
2018-12-29T02:43:46.857Z,44.27
2018-12-29T02:49:02.458Z,40.57
2018-12-29T02:54:17.983Z,51.67
2018-12-29T02:59:33.810Z,43.73
2018-12-29T03:04:49.073Z,44.63
2018-12-29T03:10:04.940Z,43.87
2018-12-29T03:15:20.418Z,50.73
2018-12-29T03:20:36.232Z,48.67
2018-12-29T03:25:52.096Z,44.77
2018-12-29T03:31:08.025Z,42.60
2018-12-29T03:36:24.117Z,44.50
2018-12-29T03:41:39.438Z,44.87
2018-12-29T03:46:54.930Z,46.53
2018-12-29T03:52:10.774Z,46.60
2018-12-29T03:57:26.865Z,47.60
2018-12-29T04:02:42.980Z,40.93
2018-12-29T04:07:58.163Z,46.17
2018-12-29T04:13:13.500Z,46.17
2018-12-29T04:18:29.103Z,39.70
2018-12-29T04:23:44.415Z,38.80
2018-12-29T04:28:59.793Z,44.70
2018-12-29T04:34:15.417Z,41.37
2018-12-29T04:39:31.438Z,43.90
2018-12-29T04:44:46.711Z,42.33
2018-12-29T04:50:02.579Z,36.67
2018-12-29T04:55:18.309Z,38.00
2018-12-29T05:00:34.068Z,39.33
2018-12-29T05:05:49.802Z,39.43
2018-12-29T05:11:05.570Z,38.07
2018-12-29T05:16:20.926Z,34.97
2018-12-29T05:21:36.433Z,37.23
2018-12-29T05:26:52.311Z,31.73
2018-12-29T05:32:07.655Z,33.63
2018-12-29T05:37:25.089Z,33.07
2018-12-29T05:42:43.147Z,32.07
2018-12-29T05:47:58.833Z,31.70
2018-12-29T05:53:15.825Z,32.17
2018-12-29T05:58:19.256Z,32.83
2018-12-29T06:04:02.772Z,29.47
2018-12-29T06:09:46.078Z,35.33
2018-12-29T06:15:09.412Z,34.20
2018-12-29T06:20:26.274Z,30.37
2018-12-29T06:25:42.314Z,28.27
2018-12-29T06:30:58.044Z,27.83
2018-12-29T06:36:15.693Z,27.53
2018-12-29T06:41:31.570Z,27.10
2018-12-29T06:46:51.093Z,29.00
2018-12-29T06:52:08.694Z,30.33
2018-12-29T06:57:26.962Z,28.30
2018-12-29T07:02:48.208Z,26.17
2018-12-29T07:08:06.568Z,26.97
2018-12-29T07:13:22.599Z,28.00
2018-12-29T07:18:39.740Z,27.17
2018-12-29T07:23:56.804Z,28.07
2018-12-29T07:29:13.722Z,28.33
2018-12-29T07:34:32.107Z,23.07
2018-12-29T07:39:52.336Z,31.67
2018-12-29T07:45:10.141Z,27.97
2018-12-29T07:50:31.976Z,32.03
2018-12-29T07:55:49.991Z,34.60
2018-12-29T08:01:10.382Z,32.57
2018-12-29T08:06:29.509Z,35.80
2018-12-29T08:11:48.102Z,34.67
2018-12-29T08:17:04.370Z,35.13
2018-12-29T08:22:24.159Z,34.17
2018-12-29T08:27:40.733Z,32.43
2018-12-29T08:32:57.723Z,32.30
2018-12-29T08:38:14.653Z,32.00
2018-12-29T08:43:32.576Z,37.30
2018-12-29T08:48:51.621Z,34.93
2018-12-29T08:54:07.955Z,34.13
2018-12-29T08:59:25.455Z,33.80
2018-12-29T09:04:41.314Z,35.20
2018-12-29T09:10:00.622Z,36.83
2018-12-29T09:15:18.495Z,40.03
2018-12-29T09:20:35.047Z,37.77
2018-12-29T09:25:52.375Z,37.63
2018-12-29T09:31:09.787Z,40.30
2018-12-29T09:36:27.644Z,35.73
2018-12-29T09:41:44.063Z,47.90
2018-12-29T09:47:02.484Z,56.23
2018-12-29T09:52:18.586Z,47.63
2018-12-29T10:03:04.721Z,41.90
2018-12-29T10:08:27.888Z,44.07
2018-12-29T10:13:43.578Z,41.10
2018-12-29T10:18:59.599Z,38.23
2018-12-29T10:24:16.525Z,43.57
2018-12-29T10:29:32.799Z,41.93
2018-12-29T10:34:48.310Z,38.97
2018-12-29T10:40:03.860Z,37.17
2018-12-29T10:45:19.084Z,37.00
2018-12-29T10:50:35.691Z,33.57
2018-12-29T11:01:25.956Z,40.17
2018-12-29T11:11:58.386Z,33.90
2018-12-29T11:17:14.019Z,34.63
2018-12-29T11:22:29.989Z,35.57
2018-12-29T11:27:45.877Z,34.50
2018-12-29T11:33:01.187Z,35.33
2018-12-29T11:38:19.014Z,35.10
2018-12-29T11:43:34.887Z,35.33
2018-12-29T11:48:50.509Z,36.00
2018-12-29T11:54:15.702Z,33.93
2018-12-29T11:59:35.761Z,32.77
2018-12-29T12:04:54.012Z,33.20
2018-12-29T12:10:13.066Z,32.30
2018-12-29T12:21:14.600Z,35.20
2018-12-29T12:31:41.159Z,33.13
2018-12-29T12:36:56.574Z,37.33
2018-12-29T12:42:12.573Z,32.83
2018-12-29T12:47:28.214Z,34.93
2018-12-29T12:52:44.378Z,30.27
2018-12-29T12:57:59.853Z,27.43
2018-12-29T13:03:16.395Z,29.47
2018-12-29T13:08:32.565Z,28.43
2018-12-29T13:13:48.645Z,25.43
2018-12-29T13:19:04.118Z,25.67
2018-12-29T13:24:20.855Z,26.03
2018-12-29T13:29:36.413Z,24.80
2018-12-29T13:34:51.928Z,27.03
2018-12-29T13:40:07.497Z,25.00
2018-12-29T13:45:24.101Z,26.30
2018-12-29T13:50:39.602Z,26.07
2018-12-29T13:55:55.424Z,30.00
2018-12-29T14:01:11.157Z,25.23
2018-12-29T14:06:27.102Z,25.37
2018-12-29T14:11:42.733Z,19.07
2018-12-29T14:16:58.821Z,24.70
2018-12-29T14:22:14.382Z,27.63
2018-12-29T14:27:29.673Z,24.77
2018-12-29T14:32:33.105Z,18.73
2018-12-29T14:37:56.489Z,21.60
2018-12-29T14:43:19.277Z,19.07
2018-12-29T14:48:42.213Z,20.50
2018-12-29T14:54:05.232Z,20.70
2018-12-29T14:59:27.997Z,22.40
2018-12-29T15:04:50.765Z,19.80
2018-12-29T15:10:13.578Z,19.97
2018-12-29T15:15:36.357Z,20.63
2018-12-29T15:20:52.663Z,20.10
2018-12-29T15:26:08.747Z,20.07
2018-12-29T15:31:24.894Z,18.07
2018-12-29T15:36:41.036Z,19.10
2018-12-29T15:41:57.101Z,20.43
2018-12-29T15:47:12.925Z,23.67
2018-12-29T15:52:29.288Z,19.27
2018-12-29T15:57:44.811Z,18.83
2018-12-29T16:03:02.212Z,17.23
2018-12-29T16:08:18.239Z,16.97
2018-12-29T16:13:35.591Z,15.80
2018-12-29T16:18:58.818Z,15.53
2018-12-29T16:24:15.673Z,12.93
2018-12-29T16:29:33.496Z,10.53
2018-12-29T16:34:49.253Z,13.17
2018-12-29T16:40:05.321Z,11.70
2018-12-29T16:45:24.609Z,7.83
2018-12-29T16:50:41.453Z,6.70
2018-12-29T16:56:01.845Z,7.73
2018-12-29T17:01:17.746Z,8.93
2018-12-29T17:06:34.992Z,6.70
2018-12-29T17:11:52.444Z,8.70
2018-12-29T17:17:08.899Z,10.83
2018-12-29T17:22:25.121Z,9.83
2018-12-29T17:27:41.024Z,10.93
2018-12-29T17:32:57.853Z,11.47
2018-12-29T17:38:13.774Z,12.27
2018-12-29T17:48:53.982Z,15.27
2018-12-29T17:54:09.341Z,15.07
2018-12-29T17:59:25.101Z,17.37
2018-12-29T18:04:41.642Z,16.80
2018-12-29T18:09:57.686Z,14.63
2018-12-29T18:15:14.068Z,18.63
2018-12-29T18:20:31.223Z,18.77
2018-12-29T18:25:47.080Z,18.07
2018-12-29T18:31:02.641Z,21.20
2018-12-29T18:36:18.429Z,21.90
2018-12-29T18:41:21.865Z,25.20
2018-12-29T18:46:44.722Z,21.93
2018-12-29T18:52:07.501Z,26.73
2018-12-29T18:57:30.266Z,28.40
2018-12-29T19:02:53.040Z,28.23
2018-12-29T19:08:16.551Z,27.87
2018-12-29T19:13:39.354Z,31.03
2018-12-29T19:19:02.382Z,30.77
2018-12-29T19:24:19.326Z,31.77
2018-12-29T19:29:35.153Z,34.43
2018-12-29T19:34:50.801Z,36.30
2018-12-29T19:40:06.337Z,35.70
2018-12-29T19:45:21.722Z,37.47
2018-12-29T19:50:37.771Z,39.03
2018-12-29T19:55:53.555Z,42.13
2018-12-29T20:01:10.580Z,38.73
2018-12-29T20:06:25.953Z,32.33
2018-12-29T20:11:41.498Z,31.40
2018-12-29T20:16:57.534Z,29.00
2018-12-29T20:22:13.496Z,32.63
2018-12-29T20:27:29.160Z,24.70
2018-12-29T20:32:45.129Z,24.53
2018-12-29T20:38:01.079Z,31.27
2018-12-29T20:43:17.135Z,24.20
2018-12-29T20:48:33.034Z,21.80
2018-12-29T20:53:48.894Z,19.77
2018-12-29T20:59:04.751Z,16.43
2018-12-29T21:04:21.098Z,16.80
2018-12-29T21:09:36.591Z,15.63
2018-12-29T21:14:52.772Z,14.53
2018-12-29T21:20:17.340Z,12.67
2018-12-29T21:25:31.893Z,12.17
2018-12-29T21:30:47.852Z,12.50
2018-12-29T21:36:04.795Z,16.60
2018-12-29T21:41:21.248Z,14.13
2018-12-29T21:46:37.701Z,8.83
2018-12-29T21:51:53.912Z,12.20
2018-12-29T21:57:09.673Z,11.23
2018-12-29T22:02:25.435Z,6.53
2018-12-29T22:07:41.344Z,10.87
2018-12-29T22:12:57.259Z,10.80
2018-12-29T22:18:12.757Z,10.67
2018-12-29T22:23:28.998Z,14.53
2018-12-29T22:28:44.977Z,11.17
2018-12-29T22:34:00.774Z,13.23
2018-12-29T22:39:16.702Z,7.77
2018-12-29T22:44:33.174Z,9.47
2018-12-29T22:49:48.921Z,12.77
2018-12-29T22:55:04.086Z,10.23
2018-12-29T23:00:21.565Z,11.53
2018-12-29T23:05:37.312Z,12.53
2018-12-29T23:10:53.425Z,9.07
2018-12-29T23:16:09.502Z,9.10
2018-12-29T23:21:24.801Z,15.17
2018-12-29T23:26:40.110Z,19.47
2018-12-29T23:31:56.028Z,14.63
2018-12-29T23:37:11.529Z,9.67
2018-12-29T23:42:26.921Z,13.67
2018-12-29T23:47:42.291Z,14.30
2018-12-29T23:52:58.326Z,11.70
2018-12-29T23:58:14.746Z,17.30
